sensor_id;sensor_type;location;lat;lon;timestamp;P1;durP1;ratioP1;P2;durP2;ratioP2
83443;SDS011;73374;41.170;-96.156;2024-02-26T00:03:06;3.42;;;0.60;;
83443;SDS011;73374;41.170;-96.156;2024-02-26T00:08:09;3.80;;;1.10;;
83443;SDS011;73374;41.170;-96.156;2024-02-26T00:13:14;1.83;;;0.88;;
83443;SDS011;73374;41.170;-96.156;2024-02-26T00:18:17;1.67;;;0.93;;
83443;SDS011;73374;41.170;-96.156;2024-02-26T00:23:20;3.03;;;1.40;;
83443;SDS011;73374;41.170;-96.156;2024-02-26T00:28:24;3.95;;;1.17;;
83443;SDS011;73374;41.170;-96.156;2024-02-26T00:33:28;2.83;;;1.13;;
83443;SDS011;73374;41.170;-96.156;2024-02-26T00:38:31;6.70;;;1.20;;
83443;SDS011;73374;41.170;-96.156;2024-02-26T00:43:35;2.35;;;0.57;;
83443;SDS011;73374;41.170;-96.156;2024-02-26T00:48:39;2.63;;;0.80;;
83443;SDS011;73374;41.170;-96.156;2024-02-26T00:53:42;4.55;;;1.20;;
83443;SDS011;73374;41.170;-96.156;2024-02-26T00:58:46;1.95;;;0.90;;
83443;SDS011;73374;41.170;-96.156;2024-02-26T01:03:50;5.63;;;0.70;;
83443;SDS011;73374;41.170;-96.156;2024-02-26T01:08:53;4.03;;;0.70;;
83443;SDS011;73374;41.170;-96.156;2024-02-26T01:13:58;5.25;;;0.77;;
83443;SDS011;73374;41.170;-96.156;2024-02-26T01:19:01;1.60;;;1.00;;
83443;SDS011;73374;41.170;-96.156;2024-02-26T01:24:04;5.95;;;1.20;;
83443;SDS011;73374;41.170;-96.156;2024-02-26T01:29:09;3.83;;;1.25;;
83443;SDS011;73374;41.170;-96.156;2024-02-26T01:34:12;4.60;;;1.33;;
83443;SDS011;73374;41.170;-96.156;2024-02-26T01:39:15;2.85;;;1.02;;
83443;SDS011;73374;41.170;-96.156;2024-02-26T01:44:20;3.83;;;1.27;;
83443;SDS011;73374;41.170;-96.156;2024-02-26T01:49:24;2.80;;;0.98;;
83443;SDS011;73374;41.170;-96.156;2024-02-26T01:54:27;8.63;;;1.70;;
83443;SDS011;73374;41.170;-96.156;2024-02-26T01:59:33;7.15;;;1.65;;
83443;SDS011;73374;41.170;-96.156;2024-02-26T02:04:38;3.85;;;1.80;;
83443;SDS011;73374;41.170;-96.156;2024-02-26T02:09:41;6.15;;;1.35;;
83443;SDS011;73374;41.170;-96.156;2024-02-26T02:14:46;4.75;;;1.70;;
83443;SDS011;73374;41.170;-96.156;2024-02-26T02:19:49;3.92;;;1.33;;
83443;SDS011;73374;41.170;-96.156;2024-02-26T02:24:54;4.38;;;1.45;;
83443;SDS011;73374;41.170;-96.156;2024-02-26T02:29:57;9.25;;;1.70;;
83443;SDS011;73374;41.170;-96.156;2024-02-26T02:35:01;6.95;;;3.03;;
83443;SDS011;73374;41.170;-96.156;2024-02-26T02:40:06;6.95;;;3.80;;
83443;SDS011;73374;41.170;-96.156;2024-02-26T02:45:10;5.82;;;2.13;;
83443;SDS011;73374;41.170;-96.156;2024-02-26T02:50:13;11.50;;;1.95;;
83443;SDS011;73374;41.170;-96.156;2024-02-26T02:55:18;5.20;;;1.92;;
83443;SDS011;73374;41.170;-96.156;2024-02-26T03:00:21;4.80;;;1.77;;
83443;SDS011;73374;41.170;-96.156;2024-02-26T03:05:24;5.75;;;1.63;;
83443;SDS011;73374;41.170;-96.156;2024-02-26T03:10:29;5.88;;;1.88;;
83443;SDS011;73374;41.170;-96.156;2024-02-26T03:15:32;5.97;;;2.10;;
83443;SDS011;73374;41.170;-96.156;2024-02-26T03:20:35;5.18;;;1.80;;
83443;SDS011;73374;41.170;-96.156;2024-02-26T03:25:41;2.78;;;1.50;;
83443;SDS011;73374;41.170;-96.156;2024-02-26T03:30:44;3.47;;;1.40;;
83443;SDS011;73374;41.170;-96.156;2024-02-26T03:35:47;6.43;;;1.40;;
83443;SDS011;73374;41.170;-96.156;2024-02-26T03:40:51;5.80;;;1.95;;
83443;SDS011;73374;41.170;-96.156;2024-02-26T03:45:54;6.57;;;3.10;;
83443;SDS011;73374;41.170;-96.156;2024-02-26T03:50:57;4.95;;;2.00;;
83443;SDS011;73374;41.170;-96.156;2024-02-26T03:56:04;5.63;;;1.25;;
83443;SDS011;73374;41.170;-96.156;2024-02-26T04:01:08;4.53;;;1.90;;
83443;SDS011;73374;41.170;-96.156;2024-02-26T04:06:11;5.20;;;1.60;;
83443;SDS011;73374;41.170;-96.156;2024-02-26T04:11:16;4.30;;;1.50;;
83443;SDS011;73374;41.170;-96.156;2024-02-26T04:16:19;4.32;;;1.73;;
83443;SDS011;73374;41.170;-96.156;2024-02-26T04:21:22;4.05;;;1.33;;
83443;SDS011;73374;41.170;-96.156;2024-02-26T04:26:27;4.43;;;1.40;;
83443;SDS011;73374;41.170;-96.156;2024-02-26T04:31:30;10.02;;;1.67;;
83443;SDS011;73374;41.170;-96.156;2024-02-26T04:36:33;11.35;;;3.92;;
83443;SDS011;73374;41.170;-96.156;2024-02-26T04:41:38;5.95;;;2.75;;
83443;SDS011;73374;41.170;-96.156;2024-02-26T04:46:41;3.58;;;1.60;;
83443;SDS011;73374;41.170;-96.156;2024-02-26T04:51:44;9.43;;;1.45;;
83443;SDS011;73374;41.170;-96.156;2024-02-26T04:56:49;4.82;;;1.30;;
83443;SDS011;73374;41.170;-96.156;2024-02-26T05:01:52;3.38;;;1.50;;
83443;SDS011;73374;41.170;-96.156;2024-02-26T05:06:55;3.47;;;1.40;;
83443;SDS011;73374;41.170;-96.156;2024-02-26T05:12:00;3.35;;;1.17;;
83443;SDS011;73374;41.170;-96.156;2024-02-26T05:17:03;2.65;;;1.42;;
83443;SDS011;73374;41.170;-96.156;2024-02-26T05:22:06;3.38;;;1.42;;
83443;SDS011;73374;41.170;-96.156;2024-02-26T05:27:11;3.05;;;1.48;;
83443;SDS011;73374;41.170;-96.156;2024-02-26T05:32:14;7.78;;;1.73;;
83443;SDS011;73374;41.170;-96.156;2024-02-26T05:37:17;3.70;;;1.70;;
83443;SDS011;73374;41.170;-96.156;2024-02-26T05:42:22;4.05;;;1.25;;
83443;SDS011;73374;41.170;-96.156;2024-02-26T05:47:25;2.28;;;1.27;;
83443;SDS011;73374;41.170;-96.156;2024-02-26T05:52:28;4.38;;;1.15;;
83443;SDS011;73374;41.170;-96.156;2024-02-26T05:57:32;3.20;;;1.30;;
83443;SDS011;73374;41.170;-96.156;2024-02-26T06:02:36;7.53;;;1.52;;
83443;SDS011;73374;41.170;-96.156;2024-02-26T06:07:39;5.63;;;1.60;;
83443;SDS011;73374;41.170;-96.156;2024-02-26T06:12:43;4.55;;;1.63;;
83443;SDS011;73374;41.170;-96.156;2024-02-26T06:17:46;3.28;;;1.27;;
83443;SDS011;73374;41.170;-96.156;2024-02-26T06:22:49;5.00;;;1.88;;
83443;SDS011;73374;41.170;-96.156;2024-02-26T06:27:54;3.10;;;1.52;;
83443;SDS011;73374;41.170;-96.156;2024-02-26T06:32:57;6.35;;;1.63;;
83443;SDS011;73374;41.170;-96.156;2024-02-26T06:38:01;3.58;;;1.10;;
83443;SDS011;73374;41.170;-96.156;2024-02-26T06:43:06;2.20;;;1.02;;
83443;SDS011;73374;41.170;-96.156;2024-02-26T06:48:08;2.83;;;0.85;;
83443;SDS011;73374;41.170;-96.156;2024-02-26T06:53:12;1.67;;;0.95;;
83443;SDS011;73374;41.170;-96.156;2024-02-26T06:58:17;3.10;;;0.98;;
83443;SDS011;73374;41.170;-96.156;2024-02-26T07:03:20;5.72;;;0.93;;
83443;SDS011;73374;41.170;-96.156;2024-02-26T07:08:23;2.13;;;1.05;;
83443;SDS011;73374;41.170;-96.156;2024-02-26T07:13:27;2.60;;;0.98;;
83443;SDS011;73374;41.170;-96.156;2024-02-26T07:18:31;3.55;;;0.90;;
83443;SDS011;73374;41.170;-96.156;2024-02-26T07:23:34;3.97;;;1.27;;
83443;SDS011;73374;41.170;-96.156;2024-02-26T07:28:38;8.52;;;0.90;;
83443;SDS011;73374;41.170;-96.156;2024-02-26T07:33:41;8.10;;;1.33;;
83443;SDS011;73374;41.170;-96.156;2024-02-26T07:38:44;4.45;;;1.38;;
83443;SDS011;73374;41.170;-96.156;2024-02-26T07:43:52;1.52;;;0.90;;
83443;SDS011;73374;41.170;-96.156;2024-02-26T07:48:55;3.97;;;1.33;;
83443;SDS011;73374;41.170;-96.156;2024-02-26T07:53:58;2.80;;;0.65;;
83443;SDS011;73374;41.170;-96.156;2024-02-26T07:59:03;4.82;;;1.20;;
83443;SDS011;73374;41.170;-96.156;2024-02-26T08:04:06;3.40;;;0.60;;
83443;SDS011;73374;41.170;-96.156;2024-02-26T08:09:09;1.83;;;0.77;;
83443;SDS011;73374;41.170;-96.156;2024-02-26T08:14:14;2.25;;;1.00;;
83443;SDS011;73374;41.170;-96.156;2024-02-26T08:19:17;4.95;;;1.52;;
83443;SDS011;73374;41.170;-96.156;2024-02-26T08:24:20;2.55;;;0.77;;
83443;SDS011;73374;41.170;-96.156;2024-02-26T08:29:25;3.83;;;0.93;;
83443;SDS011;73374;41.170;-96.156;2024-02-26T08:34:28;6.20;;;1.17;;
83443;SDS011;73374;41.170;-96.156;2024-02-26T08:39:31;3.92;;;0.90;;
83443;SDS011;73374;41.170;-96.156;2024-02-26T08:44:36;10.02;;;1.83;;
83443;SDS011;73374;41.170;-96.156;2024-02-26T08:49:42;7.60;;;1.70;;
83443;SDS011;73374;41.170;-96.156;2024-02-26T08:54:45;4.82;;;1.20;;
83443;SDS011;73374;41.170;-96.156;2024-02-26T08:59:50;4.20;;;1.25;;
83443;SDS011;73374;41.170;-96.156;2024-02-26T09:04:53;4.80;;;1.35;;
83443;SDS011;73374;41.170;-96.156;2024-02-26T09:09:56;7.60;;;1.83;;
83443;SDS011;73374;41.170;-96.156;2024-02-26T09:15:00;4.97;;;1.40;;
83443;SDS011;73374;41.170;-96.156;2024-02-26T09:20:04;7.20;;;1.92;;
83443;SDS011;73374;41.170;-96.156;2024-02-26T09:25:08;2.05;;;1.17;;
83443;SDS011;73374;41.170;-96.156;2024-02-26T09:30:13;6.82;;;1.83;;
83443;SDS011;73374;41.170;-96.156;2024-02-26T09:35:16;7.32;;;1.45;;
83443;SDS011;73374;41.170;-96.156;2024-02-26T09:40:20;3.75;;;1.42;;
83443;SDS011;73374;41.170;-96.156;2024-02-26T09:45:25;3.55;;;1.30;;
83443;SDS011;73374;41.170;-96.156;2024-02-26T09:50:30;8.65;;;1.75;;
83443;SDS011;73374;41.170;-96.156;2024-02-26T09:55:33;5.28;;;1.70;;
83443;SDS011;73374;41.170;-96.156;2024-02-26T10:00:38;5.15;;;1.88;;
83443;SDS011;73374;41.170;-96.156;2024-02-26T10:05:42;4.22;;;1.40;;
83443;SDS011;73374;41.170;-96.156;2024-02-26T10:10:46;5.28;;;1.35;;
83443;SDS011;73374;41.170;-96.156;2024-02-26T10:15:54;3.35;;;1.05;;
83443;SDS011;73374;41.170;-96.156;2024-02-26T10:21:00;2.85;;;1.40;;
83443;SDS011;73374;41.170;-96.156;2024-02-26T10:26:03;5.75;;;1.40;;
83443;SDS011;73374;41.170;-96.156;2024-02-26T10:31:09;2.10;;;1.42;;
83443;SDS011;73374;41.170;-96.156;2024-02-26T10:36:13;6.95;;;1.73;;
83443;SDS011;73374;41.170;-96.156;2024-02-26T10:41:17;9.98;;;1.90;;
83443;SDS011;73374;41.170;-96.156;2024-02-26T10:46:22;4.75;;;1.83;;
83443;SDS011;73374;41.170;-96.156;2024-02-26T10:51:26;6.68;;;1.50;;
83443;SDS011;73374;41.170;-96.156;2024-02-26T10:56:30;5.68;;;1.95;;
83443;SDS011;73374;41.170;-96.156;2024-02-26T11:01:38;7.43;;;1.77;;
83443;SDS011;73374;41.170;-96.156;2024-02-26T11:06:42;4.28;;;1.48;;
83443;SDS011;73374;41.170;-96.156;2024-02-26T11:11:48;4.28;;;1.88;;
83443;SDS011;73374;41.170;-96.156;2024-02-26T11:16:53;5.40;;;2.00;;
83443;SDS011;73374;41.170;-96.156;2024-02-26T11:21:58;3.53;;;1.63;;
83443;SDS011;73374;41.170;-96.156;2024-02-26T11:27:13;19.42;;;2.63;;
83443;SDS011;73374;41.170;-96.156;2024-02-26T11:32:20;4.00;;;1.50;;
83443;SDS011;73374;41.170;-96.156;2024-02-26T11:37:23;8.35;;;2.58;;
83443;SDS011;73374;41.170;-96.156;2024-02-26T11:42:27;8.02;;;2.63;;
83443;SDS011;73374;41.170;-96.156;2024-02-26T11:47:33;10.30;;;3.15;;
83443;SDS011;73374;41.170;-96.156;2024-02-26T11:52:37;4.55;;;2.70;;
83443;SDS011;73374;41.170;-96.156;2024-02-26T11:57:40;5.60;;;2.70;;
83443;SDS011;73374;41.170;-96.156;2024-02-26T12:02:49;4.88;;;2.38;;
83443;SDS011;73374;41.170;-96.156;2024-02-26T12:07:53;7.82;;;3.17;;
83443;SDS011;73374;41.170;-96.156;2024-02-26T12:13:00;7.20;;;3.33;;
83443;SDS011;73374;41.170;-96.156;2024-02-26T12:18:09;7.40;;;2.83;;
83443;SDS011;73374;41.170;-96.156;2024-02-26T12:23:17;10.95;;;3.88;;
83443;SDS011;73374;41.170;-96.156;2024-02-26T12:28:20;8.45;;;3.20;;
83443;SDS011;73374;41.170;-96.156;2024-02-26T12:33:25;7.60;;;3.33;;
83443;SDS011;73374;41.170;-96.156;2024-02-26T12:38:28;10.95;;;2.20;;
83443;SDS011;73374;41.170;-96.156;2024-02-26T12:43:31;6.28;;;2.75;;
83443;SDS011;73374;41.170;-96.156;2024-02-26T12:48:36;7.65;;;4.05;;
83443;SDS011;73374;41.170;-96.156;2024-02-26T12:53:40;4.25;;;2.05;;
83443;SDS011;73374;41.170;-96.156;2024-02-26T12:58:43;9.27;;;2.38;;
83443;SDS011;73374;41.170;-96.156;2024-02-26T13:03:49;9.07;;;3.63;;
83443;SDS011;73374;41.170;-96.156;2024-02-26T13:08:56;11.27;;;3.95;;
83443;SDS011;73374;41.170;-96.156;2024-02-26T13:13:59;8.27;;;4.20;;
83443;SDS011;73374;41.170;-96.156;2024-02-26T13:19:10;11.23;;;2.85;;
83443;SDS011;73374;41.170;-96.156;2024-02-26T13:24:13;11.65;;;4.18;;
83443;SDS011;73374;41.170;-96.156;2024-02-26T13:29:16;10.80;;;3.67;;
83443;SDS011;73374;41.170;-96.156;2024-02-26T13:34:24;12.13;;;4.75;;
83443;SDS011;73374;41.170;-96.156;2024-02-26T13:39:28;9.65;;;4.43;;
83443;SDS011;73374;41.170;-96.156;2024-02-26T13:44:32;14.80;;;4.60;;
83443;SDS011;73374;41.170;-96.156;2024-02-26T13:49:36;10.82;;;4.88;;
83443;SDS011;73374;41.170;-96.156;2024-02-26T13:54:40;15.98;;;4.28;;
83443;SDS011;73374;41.170;-96.156;2024-02-26T13:59:43;7.55;;;2.40;;
83443;SDS011;73374;41.170;-96.156;2024-02-26T14:04:47;16.77;;;4.68;;
83443;SDS011;73374;41.170;-96.156;2024-02-26T14:09:50;18.67;;;3.50;;
83443;SDS011;73374;41.170;-96.156;2024-02-26T14:14:54;17.90;;;4.10;;
83443;SDS011;73374;41.170;-96.156;2024-02-26T14:19:58;10.73;;;3.70;;
83443;SDS011;73374;41.170;-96.156;2024-02-26T14:25:01;10.57;;;2.97;;
83443;SDS011;73374;41.170;-96.156;2024-02-26T14:30:05;13.68;;;3.17;;
83443;SDS011;73374;41.170;-96.156;2024-02-26T14:35:10;6.60;;;2.63;;
83443;SDS011;73374;41.170;-96.156;2024-02-26T14:40:18;9.43;;;2.72;;
83443;SDS011;73374;41.170;-96.156;2024-02-26T14:45:21;5.47;;;2.25;;
83443;SDS011;73374;41.170;-96.156;2024-02-26T14:50:26;9.93;;;2.20;;
83443;SDS011;73374;41.170;-96.156;2024-02-26T14:55:29;6.47;;;2.00;;
83443;SDS011;73374;41.170;-96.156;2024-02-26T15:00:32;9.18;;;1.90;;
83443;SDS011;73374;41.170;-96.156;2024-02-26T15:05:37;13.80;;;1.80;;
83443;SDS011;73374;41.170;-96.156;2024-02-26T15:10:40;6.90;;;1.70;;
83443;SDS011;73374;41.170;-96.156;2024-02-26T15:15:43;7.68;;;2.03;;
83443;SDS011;73374;41.170;-96.156;2024-02-26T15:20:48;5.03;;;1.60;;
83443;SDS011;73374;41.170;-96.156;2024-02-26T15:25:51;10.80;;;1.85;;
83443;SDS011;73374;41.170;-96.156;2024-02-26T15:30:54;8.15;;;1.88;;
83443;SDS011;73374;41.170;-96.156;2024-02-26T15:35:58;8.02;;;1.88;;
83443;SDS011;73374;41.170;-96.156;2024-02-26T15:41:02;9.48;;;2.05;;
83443;SDS011;73374;41.170;-96.156;2024-02-26T15:46:05;9.15;;;1.63;;
83443;SDS011;73374;41.170;-96.156;2024-02-26T15:51:10;17.88;;;2.42;;
83443;SDS011;73374;41.170;-96.156;2024-02-26T15:56:21;12.45;;;2.05;;
83443;SDS011;73374;41.170;-96.156;2024-02-26T16:01:24;8.15;;;1.92;;
83443;SDS011;73374;41.170;-96.156;2024-02-26T16:06:32;10.48;;;2.28;;
83443;SDS011;73374;41.170;-96.156;2024-02-26T16:11:43;15.77;;;2.22;;
83443;SDS011;73374;41.170;-96.156;2024-02-26T16:16:47;12.35;;;1.70;;
83443;SDS011;73374;41.170;-96.156;2024-02-26T16:21:58;16.27;;;1.70;;
83443;SDS011;73374;41.170;-96.156;2024-02-26T16:27:01;19.20;;;2.13;;
83443;SDS011;73374;41.170;-96.156;2024-02-26T16:32:04;16.48;;;1.73;;
83443;SDS011;73374;41.170;-96.156;2024-02-26T16:37:09;8.85;;;1.80;;
83443;SDS011;73374;41.170;-96.156;2024-02-26T16:42:16;16.38;;;1.90;;
83443;SDS011;73374;41.170;-96.156;2024-02-26T16:47:51;10.00;;;2.00;;
83443;SDS011;73374;41.170;-96.156;2024-02-26T16:52:56;10.55;;;1.38;;
83443;SDS011;73374;41.170;-96.156;2024-02-26T16:57:59;13.63;;;1.40;;
83443;SDS011;73374;41.170;-96.156;2024-02-26T17:03:02;13.75;;;1.58;;
83443;SDS011;73374;41.170;-96.156;2024-02-26T17:08:18;14.35;;;1.80;;
83443;SDS011;73374;41.170;-96.156;2024-02-26T17:13:21;12.38;;;2.10;;
83443;SDS011;73374;41.170;-96.156;2024-02-26T17:18:24;11.20;;;2.00;;
83443;SDS011;73374;41.170;-96.156;2024-02-26T17:23:28;11.52;;;1.50;;
83443;SDS011;73374;41.170;-96.156;2024-02-26T17:28:32;8.02;;;1.30;;
83443;SDS011;73374;41.170;-96.156;2024-02-26T17:33:35;8.68;;;1.70;;
83443;SDS011;73374;41.170;-96.156;2024-02-26T17:38:40;9.55;;;1.20;;
83443;SDS011;73374;41.170;-96.156;2024-02-26T17:43:43;8.25;;;1.17;;
83443;SDS011;73374;41.170;-96.156;2024-02-26T17:48:46;9.30;;;1.50;;
83443;SDS011;73374;41.170;-96.156;2024-02-26T17:53:50;13.18;;;1.25;;
83443;SDS011;73374;41.170;-96.156;2024-02-26T17:58:53;5.97;;;1.17;;
83443;SDS011;73374;41.170;-96.156;2024-02-26T18:03:57;7.47;;;1.00;;
83443;SDS011;73374;41.170;-96.156;2024-02-26T18:09:01;11.32;;;1.17;;
83443;SDS011;73374;41.170;-96.156;2024-02-26T18:14:05;6.10;;;0.88;;
83443;SDS011;73374;41.170;-96.156;2024-02-26T18:19:08;6.93;;;1.15;;
83443;SDS011;73374;41.170;-96.156;2024-02-26T18:24:13;9.20;;;1.42;;
83443;SDS011;73374;41.170;-96.156;2024-02-26T18:29:16;7.80;;;1.10;;
83443;SDS011;73374;41.170;-96.156;2024-02-26T18:34:19;7.18;;;1.00;;
83443;SDS011;73374;41.170;-96.156;2024-02-26T18:39:24;4.25;;;0.98;;
83443;SDS011;73374;41.170;-96.156;2024-02-26T18:44:27;10.50;;;1.10;;
83443;SDS011;73374;41.170;-96.156;2024-02-26T18:49:30;11.25;;;0.90;;
83443;SDS011;73374;41.170;-96.156;2024-02-26T18:54:35;3.15;;;0.80;;
83443;SDS011;73374;41.170;-96.156;2024-02-26T18:59:38;6.13;;;0.63;;
83443;SDS011;73374;41.170;-96.156;2024-02-26T19:04:41;5.57;;;0.93;;
83443;SDS011;73374;41.170;-96.156;2024-02-26T19:09:46;6.25;;;0.70;;
83443;SDS011;73374;41.170;-96.156;2024-02-26T19:14:49;7.38;;;0.80;;
83443;SDS011;73374;41.170;-96.156;2024-02-26T19:19:52;7.95;;;0.68;;
83443;SDS011;73374;41.170;-96.156;2024-02-26T19:24:57;2.72;;;0.43;;
83443;SDS011;73374;41.170;-96.156;2024-02-26T19:30:00;5.18;;;0.50;;
83443;SDS011;73374;41.170;-96.156;2024-02-26T19:35:03;8.60;;;0.60;;
83443;SDS011;73374;41.170;-96.156;2024-02-26T19:40:09;13.48;;;0.98;;
83443;SDS011;73374;41.170;-96.156;2024-02-26T19:45:12;14.98;;;0.90;;
83443;SDS011;73374;41.170;-96.156;2024-02-26T19:50:16;10.98;;;1.05;;
83443;SDS011;73374;41.170;-96.156;2024-02-26T19:55:20;4.45;;;0.38;;
83443;SDS011;73374;41.170;-96.156;2024-02-26T20:00:24;15.98;;;1.10;;
83443;SDS011;73374;41.170;-96.156;2024-02-26T20:05:27;31.90;;;1.90;;
83443;SDS011;73374;41.170;-96.156;2024-02-26T20:10:31;6.32;;;0.60;;
83443;SDS011;73374;41.170;-96.156;2024-02-26T20:15:35;2.28;;;0.43;;
83443;SDS011;73374;41.170;-96.156;2024-02-26T20:20:39;19.05;;;1.17;;
83443;SDS011;73374;41.170;-96.156;2024-02-26T20:25:43;5.30;;;0.50;;
83443;SDS011;73374;41.170;-96.156;2024-02-26T20:30:46;35.63;;;2.50;;
83443;SDS011;73374;41.170;-96.156;2024-02-26T20:35:49;3.40;;;0.50;;
83443;SDS011;73374;41.170;-96.156;2024-02-26T20:40:55;5.97;;;0.50;;
83443;SDS011;73374;41.170;-96.156;2024-02-26T20:45:58;5.63;;;0.63;;
83443;SDS011;73374;41.170;-96.156;2024-02-26T20:51:01;8.57;;;1.10;;
83443;SDS011;73374;41.170;-96.156;2024-02-26T20:56:06;52.38;;;3.25;;
83443;SDS011;73374;41.170;-96.156;2024-02-26T21:01:09;2.15;;;0.32;;
83443;SDS011;73374;41.170;-96.156;2024-02-26T21:06:12;9.27;;;0.90;;
83443;SDS011;73374;41.170;-96.156;2024-02-26T21:11:17;2.65;;;0.30;;
83443;SDS011;73374;41.170;-96.156;2024-02-26T21:16:20;3.22;;;0.65;;
83443;SDS011;73374;41.170;-96.156;2024-02-26T21:21:24;2.20;;;0.35;;
83443;SDS011;73374;41.170;-96.156;2024-02-26T21:26:29;2.25;;;0.40;;
83443;SDS011;73374;41.170;-96.156;2024-02-26T21:31:33;10.18;;;0.60;;
83443;SDS011;73374;41.170;-96.156;2024-02-26T21:36:37;1.38;;;0.22;;
83443;SDS011;73374;41.170;-96.156;2024-02-26T21:41:42;7.78;;;1.02;;
83443;SDS011;73374;41.170;-96.156;2024-02-26T21:46:45;4.18;;;0.50;;
83443;SDS011;73374;41.170;-96.156;2024-02-26T21:51:48;0.98;;;0.28;;
83443;SDS011;73374;41.170;-96.156;2024-02-26T21:56:52;3.88;;;0.43;;
83443;SDS011;73374;41.170;-96.156;2024-02-26T22:01:55;3.88;;;0.22;;
83443;SDS011;73374;41.170;-96.156;2024-02-26T22:06:59;3.60;;;0.50;;
83443;SDS011;73374;41.170;-96.156;2024-02-26T22:12:03;1.33;;;0.28;;
83443;SDS011;73374;41.170;-96.156;2024-02-26T22:17:07;15.90;;;0.98;;
83443;SDS011;73374;41.170;-96.156;2024-02-26T22:22:10;4.07;;;0.32;;
83443;SDS011;73374;41.170;-96.156;2024-02-26T22:27:14;11.10;;;1.15;;
83443;SDS011;73374;41.170;-96.156;2024-02-26T22:32:18;3.40;;;0.20;;
83443;SDS011;73374;41.170;-96.156;2024-02-26T22:37:21;1.70;;;0.43;;
83443;SDS011;73374;41.170;-96.156;2024-02-26T22:42:26;1.55;;;0.30;;
83443;SDS011;73374;41.170;-96.156;2024-02-26T22:47:29;2.03;;;0.30;;
83443;SDS011;73374;41.170;-96.156;2024-02-26T22:52:32;4.88;;;0.40;;
83443;SDS011;73374;41.170;-96.156;2024-02-26T22:57:36;1.95;;;0.30;;
83443;SDS011;73374;41.170;-96.156;2024-02-26T23:02:40;2.55;;;0.30;;
83443;SDS011;73374;41.170;-96.156;2024-02-26T23:07:43;3.22;;;0.35;;
83443;SDS011;73374;41.170;-96.156;2024-02-26T23:12:47;3.03;;;0.80;;
83443;SDS011;73374;41.170;-96.156;2024-02-26T23:17:51;1.50;;;0.50;;
83443;SDS011;73374;41.170;-96.156;2024-02-26T23:22:55;3.50;;;0.57;;
83443;SDS011;73374;41.170;-96.156;2024-02-26T23:27:59;3.17;;;0.88;;
83443;SDS011;73374;41.170;-96.156;2024-02-26T23:33:02;2.25;;;1.30;;
83443;SDS011;73374;41.170;-96.156;2024-02-26T23:38:06;3.55;;;1.20;;
83443;SDS011;73374;41.170;-96.156;2024-02-26T23:43:10;4.57;;;1.20;;
83443;SDS011;73374;41.170;-96.156;2024-02-26T23:48:14;4.85;;;1.60;;
83443;SDS011;73374;41.170;-96.156;2024-02-26T23:53:17;6.00;;;1.77;;
83443;SDS011;73374;41.170;-96.156;2024-02-26T23:58:21;6.72;;;2.67;;
